createdAt,value
2018-02-09T00:01:50.330Z,-3.51
2018-02-09T00:04:18.607Z,-3.49
2018-02-09T00:06:57.173Z,-3.58
2018-02-09T00:09:27.152Z,-3.61
2018-02-09T00:11:55.411Z,-3.62
2018-02-09T00:14:24.459Z,-3.45
2018-02-09T00:16:52.816Z,-3.50
2018-02-09T00:19:21.854Z,-3.43
2018-02-09T00:21:50.123Z,-3.43
2018-02-09T00:24:18.390Z,-3.47
2018-02-09T00:26:47.422Z,-3.46
2018-02-09T00:29:15.706Z,-3.50
2018-02-09T00:31:43.979Z,-3.68
2018-02-09T00:34:45.166Z,-3.57
2018-02-09T00:37:14.351Z,-3.77
2018-02-09T00:39:43.399Z,-3.77
2018-02-09T00:42:11.667Z,-3.80
2018-02-09T00:44:39.945Z,-3.79
2018-02-09T00:47:09.174Z,-3.82
2018-02-09T00:49:37.454Z,-3.78
2018-02-09T00:52:06.647Z,-3.84
2018-02-09T00:54:34.953Z,-3.91
2018-02-09T00:57:03.219Z,-3.90
2018-02-09T00:59:32.255Z,-3.88
2018-02-09T01:02:00.527Z,-3.86
2018-02-09T01:04:28.807Z,-3.83
2018-02-09T01:06:57.091Z,-3.86
2018-02-09T01:09:27.049Z,-4.00
2018-02-09T01:12:08.703Z,-3.96
2018-02-09T01:14:37.959Z,-3.96
2018-02-09T01:17:23.151Z,-3.93
2018-02-09T01:19:51.426Z,-3.96
2018-02-09T01:22:19.700Z,-4.02
2018-02-09T01:24:55.246Z,-4.02
2018-02-09T01:27:24.283Z,-4.14
2018-02-09T01:29:52.587Z,-4.03
2018-02-09T01:32:22.800Z,-4.12
2018-02-09T01:34:51.087Z,-4.15
2018-02-09T01:37:19.370Z,-4.07
2018-02-09T01:39:47.666Z,-4.15
2018-02-09T01:42:15.936Z,-4.10
2018-02-09T01:44:45.908Z,-4.14
2018-02-09T01:47:14.253Z,-4.15
2018-02-09T01:49:43.286Z,-4.17
2018-02-09T01:52:11.561Z,-4.18
2018-02-09T01:54:39.832Z,-4.14
2018-02-09T01:57:08.880Z,-4.14
2018-02-09T01:59:37.164Z,-4.34
2018-02-09T02:02:05.443Z,-4.22
2018-02-09T02:04:51.784Z,-4.15
2018-02-09T02:07:20.056Z,-4.33
2018-02-09T02:09:48.328Z,-4.38
2018-02-09T02:12:16.595Z,-4.30
2018-02-09T02:14:45.648Z,-4.22
2018-02-09T02:17:13.930Z,-4.21
2018-02-09T02:19:42.207Z,-4.32
2018-02-09T02:22:10.489Z,-4.24
2018-02-09T02:24:38.795Z,-4.15
2018-02-09T02:27:13.110Z,-4.14
2018-02-09T02:29:41.391Z,-4.25
2018-02-09T02:32:09.702Z,-3.92
2018-02-09T02:34:37.998Z,-3.82
2018-02-09T02:37:06.268Z,-3.58
2018-02-09T02:39:34.572Z,-3.39
2018-02-09T02:42:02.856Z,-3.14
2018-02-09T02:44:31.136Z,-2.98
2018-02-09T02:46:59.407Z,-2.74
2018-02-09T02:49:27.684Z,-2.47
2018-02-09T02:51:56.733Z,-2.43
2018-02-09T02:54:25.016Z,-2.31
2018-02-09T02:56:53.287Z,-2.23
2018-02-09T02:59:21.577Z,-2.03
2018-02-09T03:01:54.784Z,-2.08
2018-02-09T03:04:23.065Z,-1.92
2018-02-09T03:06:51.346Z,-1.96
2018-02-09T03:09:24.195Z,-1.82
2018-02-09T03:11:52.423Z,-1.76
2018-02-09T03:14:20.721Z,-1.89
2018-02-09T03:16:48.996Z,-1.93
2018-02-09T03:19:18.292Z,-1.83
2018-02-09T03:21:46.564Z,-1.88
2018-02-09T03:24:14.854Z,-2.02
2018-02-09T03:26:43.141Z,-2.05
2018-02-09T03:29:11.419Z,-1.96
2018-02-09T03:31:46.179Z,-1.92
2018-02-09T03:34:14.461Z,-2.07
2018-02-09T03:36:42.732Z,-2.12
2018-02-09T03:39:11.017Z,-2.28
2018-02-09T03:41:39.297Z,-2.46
2018-02-09T03:44:07.582Z,-2.35
2018-02-09T03:46:35.847Z,-2.35
2018-02-09T03:49:04.905Z,-2.39
2018-02-09T03:51:33.176Z,-2.52
2018-02-09T03:54:01.447Z,-2.47
2018-02-09T03:56:29.716Z,-2.55
2018-02-09T03:58:57.999Z,-2.68
2018-02-09T04:01:27.220Z,-2.93
2018-02-09T04:03:55.502Z,-3.05
2018-02-09T04:09:24.602Z,-3.36
2018-02-09T04:11:52.886Z,-3.44
2018-02-09T04:14:24.396Z,-3.42
2018-02-09T04:16:52.667Z,-3.41
2018-02-09T04:19:21.719Z,-3.43
2018-02-09T04:21:49.995Z,-3.51
2018-02-09T04:24:18.288Z,-3.51
2018-02-09T04:26:46.568Z,-3.71
2018-02-09T04:29:14.846Z,-3.51
2018-02-09T04:31:43.144Z,-3.69
2018-02-09T04:34:11.433Z,-3.65
2018-02-09T04:36:39.718Z,-3.66
2018-02-09T04:39:07.998Z,-3.80
2018-02-09T04:41:36.289Z,-4.16
2018-02-09T04:44:04.595Z,-3.95
2018-02-09T04:46:32.871Z,-3.80
2018-02-09T04:49:01.148Z,-3.75
2018-02-09T04:51:30.192Z,-3.82
2018-02-09T04:53:58.470Z,-3.71
2018-02-09T04:56:26.755Z,-3.60
2018-02-09T04:58:55.023Z,-3.58
2018-02-09T05:01:24.265Z,-3.50
2018-02-09T05:03:52.761Z,-3.66
2018-02-09T05:06:21.044Z,-3.47
2018-02-09T05:08:53.201Z,-3.27
2018-02-09T05:11:21.484Z,-3.17
2018-02-09T05:13:50.585Z,-3.17
2018-02-09T05:16:19.637Z,-3.13
2018-02-09T05:18:47.909Z,-2.81
2018-02-09T05:21:17.108Z,-2.56
2018-02-09T05:23:47.145Z,-2.36
2018-02-09T05:26:16.086Z,-2.06
2018-02-09T05:28:45.174Z,-1.93
2018-02-09T05:31:13.464Z,-1.69
2018-02-09T05:33:41.736Z,-1.49
2018-02-09T05:36:10.020Z,-1.29
2018-02-09T05:38:38.315Z,-1.37
2018-02-09T05:41:06.610Z,-1.11
2018-02-09T05:43:34.892Z,-0.99
2018-02-09T05:46:03.168Z,-0.85
2018-02-09T05:48:31.449Z,-0.90
2018-02-09T05:50:59.750Z,-0.87
2018-02-09T05:53:28.019Z,-1.17
2018-02-09T05:55:56.303Z,-1.02
2018-02-09T05:58:25.349Z,-1.20
2018-02-09T06:00:53.627Z,-0.74
2018-02-09T06:03:21.900Z,-0.46
2018-02-09T06:05:50.194Z,-0.27
2018-02-09T06:08:18.492Z,-0.09
2018-02-09T06:10:46.795Z,-0.07
2018-02-09T06:13:15.055Z,-0.17
2018-02-09T06:15:43.344Z,-0.05
2018-02-09T06:18:12.559Z,-0.06
2018-02-09T06:20:40.869Z,-0.01
2018-02-09T06:23:09.991Z,0.00
2018-02-09T06:25:38.284Z,-0.25
2018-02-09T06:28:06.555Z,-0.49
2018-02-09T06:30:37.905Z,-0.44
2018-02-09T06:33:06.966Z,-0.50
2018-02-09T06:35:36.027Z,-0.50
2018-02-09T06:38:04.292Z,-0.53
2018-02-09T06:40:32.575Z,-0.61
2018-02-09T06:43:00.848Z,-0.62
2018-02-09T06:45:33.565Z,-0.77
2018-02-09T06:48:01.831Z,-1.11
2018-02-09T06:50:31.601Z,-1.16
2018-02-09T06:52:59.876Z,-1.34
2018-02-09T06:55:29.192Z,-1.49
2018-02-09T06:57:57.468Z,-1.46
2018-02-09T07:00:25.779Z,-1.10
2018-02-09T07:02:54.056Z,-0.92
2018-02-09T07:05:30.607Z,-1.20
2018-02-09T07:07:58.890Z,-0.88
2018-02-09T07:10:27.955Z,-1.06
2018-02-09T07:12:56.236Z,-1.12
2018-02-09T07:15:24.532Z,-1.14
2018-02-09T07:17:52.802Z,-1.28
2018-02-09T07:20:21.088Z,-0.86
2018-02-09T07:22:50.186Z,-0.84
2018-02-09T07:25:18.473Z,-0.65
2018-02-09T07:27:46.768Z,-0.36
2018-02-09T07:30:15.045Z,-0.35
2018-02-09T07:32:44.251Z,-0.48
2018-02-09T07:35:12.536Z,-0.20
2018-02-09T07:37:40.837Z,-0.08
2018-02-09T07:40:09.132Z,0.02
2018-02-09T07:42:37.493Z,0.21
2018-02-09T07:45:05.837Z,0.25
2018-02-09T07:47:34.111Z,0.23
2018-02-09T07:50:02.375Z,-0.08
2018-02-09T07:52:32.715Z,-0.06
2018-02-09T07:55:00.981Z,0.13
2018-02-09T07:57:30.023Z,0.32
2018-02-09T07:59:58.322Z,0.13
2018-02-09T08:02:26.609Z,-0.38
2018-02-09T08:04:54.892Z,-0.46
2018-02-09T08:07:26.201Z,-0.57
2018-02-09T08:09:55.287Z,-1.07
2018-02-09T08:12:23.559Z,-0.96
2018-02-09T08:14:51.829Z,-1.16
2018-02-09T08:17:20.105Z,-0.84
2018-02-09T08:19:48.378Z,-1.04
2018-02-09T08:22:16.650Z,-1.56
2018-02-09T08:24:46.287Z,-0.95
2018-02-09T08:27:15.339Z,-0.84
2018-02-09T08:29:43.641Z,-1.14
2018-02-09T08:32:11.912Z,-1.37
2018-02-09T08:34:40.181Z,-1.20
2018-02-09T08:37:08.456Z,-0.82
2018-02-09T08:39:36.721Z,-0.79
2018-02-09T08:42:05.800Z,-0.92
2018-02-09T08:44:34.719Z,-1.05
2018-02-09T08:47:02.990Z,-1.18
2018-02-09T08:49:31.263Z,-0.86
2018-02-09T08:51:59.548Z,-0.52
2018-02-09T08:54:28.048Z,0.24
2018-02-09T08:56:56.319Z,0.45
2018-02-09T08:59:24.596Z,0.39
2018-02-09T09:01:52.877Z,0.79
2018-02-09T09:04:21.135Z,0.88
2018-02-09T09:06:50.184Z,0.87
2018-02-09T09:09:18.458Z,1.03
2018-02-09T09:11:58.354Z,1.17
2018-02-09T09:14:27.640Z,1.56
2018-02-09T09:17:05.817Z,1.69
2018-02-09T09:19:34.084Z,1.38
2018-02-09T09:22:02.371Z,0.93
2018-02-09T09:24:35.227Z,1.02
2018-02-09T09:27:03.585Z,0.98
2018-02-09T09:29:31.865Z,1.23
2018-02-09T09:32:10.824Z,0.94
2018-02-09T09:34:40.502Z,1.04
2018-02-09T09:37:08.785Z,0.92
2018-02-09T09:39:37.845Z,0.78
2018-02-09T09:42:06.886Z,0.72
2018-02-09T09:44:35.151Z,1.05
2018-02-09T09:47:03.432Z,0.73
2018-02-09T09:49:48.835Z,1.20
2018-02-09T09:52:17.121Z,1.42
2018-02-09T09:54:56.055Z,1.82
2018-02-09T09:57:26.697Z,1.90
2018-02-09T09:59:59.541Z,1.97
2018-02-09T10:02:39.546Z,2.03
2018-02-09T10:05:23.302Z,2.12
2018-02-09T10:07:52.446Z,2.20
2018-02-09T10:10:21.726Z,2.32
2018-02-09T10:12:51.834Z,1.99
2018-02-09T10:15:27.605Z,1.93
2018-02-09T10:17:55.933Z,2.14
2018-02-09T10:20:25.390Z,1.89
2018-02-09T10:22:53.676Z,1.42
2018-02-09T10:25:23.686Z,1.10
2018-02-09T10:27:52.615Z,0.74
2018-02-09T10:30:31.853Z,0.95
2018-02-09T10:33:01.201Z,1.19
2018-02-09T10:35:43.239Z,1.60
2018-02-09T10:38:11.544Z,1.46
2018-02-09T10:40:39.820Z,1.43
2018-02-09T10:43:08.113Z,1.03
2018-02-09T10:45:36.394Z,1.46
2018-02-09T10:48:04.671Z,0.95
2018-02-09T10:50:32.931Z,1.28
2018-02-09T10:53:01.209Z,1.20
2018-02-09T10:55:29.463Z,0.88
2018-02-09T10:57:57.744Z,0.76
2018-02-09T11:00:31.618Z,0.68
2018-02-09T11:02:59.894Z,0.79
2018-02-09T11:05:28.153Z,0.87
2018-02-09T11:07:56.426Z,0.75
2018-02-09T11:10:37.321Z,0.87
2018-02-09T11:13:11.000Z,0.60
2018-02-09T11:15:40.040Z,1.03
2018-02-09T11:18:08.316Z,0.55
2018-02-09T11:20:36.579Z,1.21
2018-02-09T11:23:05.624Z,1.08
2018-02-09T11:25:33.906Z,0.98
2018-02-09T11:28:02.183Z,1.55
2018-02-09T11:30:30.790Z,1.54
2018-02-09T11:32:59.051Z,1.50
2018-02-09T11:35:28.086Z,1.42
2018-02-09T11:37:56.425Z,1.30
2018-02-09T11:40:24.697Z,1.10
2018-02-09T11:42:52.979Z,1.21
2018-02-09T11:45:21.239Z,1.63
2018-02-09T11:47:49.511Z,1.49
2018-02-09T11:50:17.773Z,1.12
2018-02-09T11:52:46.880Z,1.23
2018-02-09T11:55:15.096Z,1.33
2018-02-09T11:57:43.367Z,1.57
2018-02-09T12:00:12.391Z,1.54
2018-02-09T12:02:40.664Z,1.52
2018-02-09T12:05:09.697Z,1.79
2018-02-09T12:07:38.731Z,1.65
2018-02-09T12:10:06.996Z,2.11
2018-02-09T12:12:35.333Z,2.08
2018-02-09T12:15:03.557Z,1.56
2018-02-09T12:17:31.836Z,1.74
2018-02-09T12:20:00.112Z,2.17
2018-02-09T12:22:29.185Z,2.18
2018-02-09T12:24:57.457Z,2.51
2018-02-09T12:27:25.793Z,2.11
2018-02-09T12:29:56.766Z,1.48
2018-02-09T12:32:25.042Z,1.70
2018-02-09T12:34:54.068Z,1.63
2018-02-09T12:37:22.345Z,2.09
2018-02-09T12:39:50.625Z,2.21
2018-02-09T12:42:19.665Z,1.65
2018-02-09T12:44:47.933Z,1.46
2018-02-09T12:47:16.217Z,1.64
2018-02-09T12:49:44.492Z,1.35
2018-02-09T12:52:13.544Z,1.10
2018-02-09T12:54:41.822Z,1.60
2018-02-09T12:57:10.980Z,1.82
2018-02-09T12:59:39.248Z,1.63
2018-02-09T13:02:07.605Z,1.73
2018-02-09T13:04:35.905Z,2.14
2018-02-09T13:07:04.178Z,1.52
2018-02-09T13:09:32.452Z,1.68
2018-02-09T13:12:00.712Z,1.59
2018-02-09T13:14:47.412Z,1.63
2018-02-09T13:17:15.683Z,1.45
2018-02-09T13:19:43.964Z,1.47
2018-02-09T13:22:30.218Z,1.33
2018-02-09T13:24:58.593Z,0.73
2018-02-09T13:27:26.906Z,0.94
2018-02-09T13:29:55.953Z,0.95
2018-02-09T13:32:41.936Z,1.49
2018-02-09T13:35:11.071Z,1.39
2018-02-09T13:37:39.345Z,1.14
2018-02-09T13:40:07.610Z,1.67
2018-02-09T13:42:36.638Z,1.50
2018-02-09T13:45:04.984Z,1.64
2018-02-09T13:47:33.252Z,1.27
2018-02-09T13:50:01.536Z,1.06
2018-02-09T13:52:29.835Z,1.34
2018-02-09T13:54:58.115Z,1.22
2018-02-09T13:57:26.400Z,1.02
2018-02-09T13:59:54.680Z,1.43
2018-02-09T14:02:22.973Z,1.35
2018-02-09T14:04:52.850Z,1.25
2018-02-09T14:07:21.880Z,0.99
2018-02-09T14:09:50.143Z,1.14
2018-02-09T14:12:19.171Z,0.73
2018-02-09T14:14:47.452Z,0.58
2018-02-09T14:17:16.472Z,1.15
2018-02-09T14:19:44.758Z,0.96
2018-02-09T14:22:13.027Z,0.96
2018-02-09T14:24:42.060Z,0.91
2018-02-09T14:27:10.344Z,1.06
2018-02-09T14:29:38.623Z,0.68
2018-02-09T14:32:06.904Z,0.83
2018-02-09T14:34:35.245Z,0.75
2018-02-09T14:37:03.533Z,0.77
2018-02-09T14:39:31.800Z,0.74
2018-02-09T14:42:00.066Z,0.78
2018-02-09T14:44:38.247Z,0.95
2018-02-09T14:47:06.507Z,0.84
2018-02-09T14:49:34.934Z,0.99
2018-02-09T14:52:03.977Z,0.52
2018-02-09T14:54:32.252Z,0.65
2018-02-09T14:57:01.279Z,0.93
2018-02-09T14:59:29.583Z,0.82
2018-02-09T15:01:57.849Z,0.87
2018-02-09T15:04:26.115Z,0.90
2018-02-09T15:06:55.176Z,1.16
2018-02-09T15:09:23.528Z,0.90
2018-02-09T15:11:51.797Z,0.75
2018-02-09T15:14:20.840Z,0.53
2018-02-09T15:16:49.104Z,0.64
2018-02-09T15:19:18.145Z,0.57
2018-02-09T15:21:46.484Z,0.57
2018-02-09T15:24:15.515Z,0.29
2018-02-09T15:26:43.793Z,0.76
2018-02-09T15:29:12.824Z,0.70
2018-02-09T15:31:41.079Z,0.74
2018-02-09T15:34:09.344Z,0.70
2018-02-09T15:36:37.632Z,0.97
2018-02-09T15:39:05.890Z,0.74
2018-02-09T15:41:34.169Z,0.91
2018-02-09T15:44:02.431Z,0.83
2018-02-09T15:46:30.789Z,0.81
2018-02-09T15:48:59.062Z,0.78
2018-02-09T15:51:27.328Z,0.55
2018-02-09T15:53:55.589Z,0.54
2018-02-09T15:56:23.864Z,0.62
2018-02-09T15:58:52.904Z,0.32
2018-02-09T16:01:21.177Z,0.37
2018-02-09T16:03:49.442Z,0.10
2018-02-09T16:06:18.478Z,0.39
2018-02-09T16:08:46.740Z,-0.15
2018-02-09T16:11:15.775Z,-0.01
2018-02-09T16:13:44.052Z,-0.03
2018-02-09T16:16:12.308Z,0.03
2018-02-09T16:18:40.563Z,0.55
2018-02-09T16:21:08.828Z,0.33
2018-02-09T16:23:37.093Z,0.80
2018-02-09T16:26:05.367Z,0.33
2018-02-09T16:28:34.415Z,0.34
2018-02-09T16:31:02.680Z,0.90
2018-02-09T16:33:30.945Z,0.57
2018-02-09T16:35:59.987Z,0.84
2018-02-09T16:38:28.243Z,0.74
2018-02-09T16:40:57.284Z,0.67
2018-02-09T16:43:25.654Z,0.62
2018-02-09T16:45:53.935Z,0.40
2018-02-09T16:48:22.965Z,0.70
2018-02-09T16:50:51.234Z,0.59
2018-02-09T16:53:19.486Z,0.63
2018-02-09T16:55:47.760Z,0.38
2018-02-09T16:58:16.030Z,0.59
2018-02-09T17:00:44.375Z,0.75
2018-02-09T17:03:13.409Z,0.60
2018-02-09T17:05:41.684Z,0.62
2018-02-09T17:08:10.265Z,0.68
2018-02-09T17:10:39.303Z,0.73
2018-02-09T17:13:07.569Z,0.68
2018-02-09T17:15:36.617Z,0.94
2018-02-09T17:18:04.877Z,0.80
2018-02-09T17:20:33.148Z,0.81
2018-02-09T17:23:02.169Z,0.96
2018-02-09T17:25:30.441Z,0.65
2018-02-09T17:27:59.464Z,1.22
2018-02-09T17:30:27.727Z,1.13
2018-02-09T17:32:56.753Z,1.28
2018-02-09T17:35:25.015Z,0.95
2018-02-09T17:37:53.271Z,1.29
2018-02-09T17:40:21.550Z,1.32
2018-02-09T17:42:49.828Z,1.25
2018-02-09T17:45:18.101Z,1.57
2018-02-09T17:47:46.364Z,1.35
2018-02-09T17:50:15.395Z,1.44
2018-02-09T17:52:43.661Z,1.68
2018-02-09T17:55:12.703Z,1.56
2018-02-09T17:57:40.963Z,1.40
2018-02-09T18:00:10.042Z,1.53
2018-02-09T18:02:38.296Z,1.69
2018-02-09T18:05:06.616Z,1.54
2018-02-09T18:07:35.604Z,1.55
2018-02-09T18:10:03.874Z,1.69
2018-02-09T18:12:32.149Z,2.06
2018-02-09T18:15:00.413Z,2.01
2018-02-09T18:17:35.799Z,1.83
2018-02-09T18:20:04.061Z,2.02
2018-02-09T18:22:32.336Z,2.09
2018-02-09T18:25:01.361Z,2.31
2018-02-09T18:27:29.624Z,2.19
2018-02-09T18:29:57.880Z,2.23
2018-02-09T18:32:26.144Z,2.16
2018-02-09T18:34:54.399Z,2.31
2018-02-09T18:37:23.470Z,2.71
2018-02-09T18:39:51.715Z,2.48
2018-02-09T18:42:20.002Z,2.22
2018-02-09T18:44:48.255Z,2.09
2018-02-09T18:47:16.534Z,1.81
2018-02-09T18:49:44.843Z,1.62
2018-02-09T18:52:13.089Z,1.90
2018-02-09T18:54:41.348Z,1.92
2018-02-09T18:57:09.617Z,1.99
2018-02-09T18:59:38.644Z,2.00
2018-02-09T19:02:06.917Z,2.10
2018-02-09T19:04:35.185Z,1.83
2018-02-09T19:07:04.230Z,2.20
2018-02-09T19:09:32.510Z,2.77
2018-02-09T19:12:00.782Z,2.40
2018-02-09T19:14:29.086Z,2.09
2018-02-09T19:16:57.361Z,1.96
2018-02-09T19:19:26.398Z,1.87
2018-02-09T19:21:54.681Z,2.09
2018-02-09T19:24:22.954Z,2.23
2018-02-09T19:26:51.219Z,2.06
2018-02-09T19:29:20.260Z,1.89
2018-02-09T19:31:48.532Z,2.33
2018-02-09T19:34:17.561Z,2.17
2018-02-09T19:36:45.823Z,2.24
2018-02-09T19:39:14.097Z,1.82
2018-02-09T19:41:43.140Z,2.04
2018-02-09T19:44:11.420Z,1.77
2018-02-09T19:46:39.704Z,1.73
2018-02-09T19:49:07.963Z,1.95
2018-02-09T19:51:37.004Z,1.99
2018-02-09T19:54:05.273Z,1.73
2018-02-09T19:56:34.317Z,1.46
2018-02-09T19:59:02.588Z,1.44
2018-02-09T20:01:30.905Z,1.79
2018-02-09T20:03:59.887Z,1.67
2018-02-09T20:06:28.152Z,1.95
2018-02-09T20:08:56.421Z,2.44
2018-02-09T20:11:25.468Z,2.27
2018-02-09T20:13:53.742Z,2.27
2018-02-09T20:16:22.017Z,2.36
2018-02-09T20:18:51.053Z,2.40
2018-02-09T20:21:19.322Z,2.29
2018-02-09T20:23:47.597Z,2.06
2018-02-09T20:26:16.637Z,2.33
2018-02-09T20:28:44.909Z,2.19
2018-02-09T20:31:13.192Z,2.16
2018-02-09T20:33:42.208Z,2.31
2018-02-09T20:36:10.488Z,1.90
2018-02-09T20:38:38.752Z,1.91
2018-02-09T20:41:07.801Z,2.08
2018-02-09T20:43:36.061Z,2.12
2018-02-09T20:46:05.114Z,2.18
2018-02-09T20:48:33.393Z,2.12
2018-02-09T20:51:01.663Z,2.08
2018-02-09T20:53:29.929Z,2.08
2018-02-09T20:55:58.961Z,2.26
2018-02-09T20:58:27.219Z,2.20
2018-02-09T21:00:56.256Z,2.47
2018-02-09T21:03:24.541Z,2.20
2018-02-09T21:05:52.812Z,2.26
2018-02-09T21:08:21.844Z,1.98
2018-02-09T21:10:50.108Z,2.05
2018-02-09T21:13:18.379Z,1.91
2018-02-09T21:15:47.411Z,2.41
2018-02-09T21:18:15.683Z,1.65
2018-02-09T21:20:44.716Z,1.40
2018-02-09T21:23:12.982Z,1.43
2018-02-09T21:25:41.252Z,1.31
2018-02-09T21:28:10.291Z,1.64
2018-02-09T21:30:38.548Z,1.75
2018-02-09T21:33:07.592Z,1.72
2018-02-09T21:35:35.864Z,1.79
2018-02-09T21:38:04.193Z,1.65
2018-02-09T21:40:32.451Z,1.64
2018-02-09T21:43:01.525Z,1.74
2018-02-09T21:45:30.552Z,1.92
2018-02-09T21:47:58.835Z,2.27
2018-02-09T21:50:27.855Z,2.54
2018-02-09T21:52:56.132Z,1.98
2018-02-09T21:55:24.404Z,2.15
2018-02-09T21:57:53.458Z,2.28
2018-02-09T22:00:21.720Z,1.77
2018-02-09T22:02:49.996Z,1.75
2018-02-09T22:05:19.041Z,1.96
2018-02-09T22:07:47.306Z,2.02
2018-02-09T22:10:15.580Z,1.40
2018-02-09T22:12:44.622Z,1.20
2018-02-09T22:15:13.647Z,1.60
2018-02-09T22:17:41.921Z,1.36
2018-02-09T22:20:10.172Z,1.62
2018-02-09T22:22:39.208Z,1.34
2018-02-09T22:25:07.466Z,1.75
2018-02-09T22:27:35.745Z,1.58
2018-02-09T22:30:04.785Z,1.55
2018-02-09T22:32:33.057Z,1.89
2018-02-09T22:35:01.317Z,1.58
2018-02-09T22:37:29.588Z,1.54
2018-02-09T22:39:57.852Z,1.69
2018-02-09T22:42:26.118Z,1.58
2018-02-09T22:44:54.379Z,1.60
2018-02-09T22:47:23.421Z,1.72
2018-02-09T22:49:51.693Z,2.03
2018-02-09T22:52:19.968Z,1.79
2018-02-09T22:54:48.996Z,1.86
2018-02-09T22:57:17.264Z,1.91
2018-02-09T22:59:46.292Z,1.73
2018-02-09T23:02:14.559Z,1.49
2018-02-09T23:04:42.823Z,1.54
2018-02-09T23:07:11.111Z,1.61
2018-02-09T23:09:39.372Z,1.75
2018-02-09T23:12:07.653Z,1.89
2018-02-09T23:14:35.925Z,1.98
2018-02-09T23:17:04.199Z,1.69
2018-02-09T23:19:32.456Z,2.04
2018-02-09T23:22:01.496Z,2.50
2018-02-09T23:24:29.763Z,2.56
2018-02-09T23:26:58.805Z,2.46
2018-02-09T23:29:27.064Z,2.34
2018-02-09T23:31:55.331Z,2.63
2018-02-09T23:34:24.424Z,2.75
2018-02-09T23:36:52.650Z,2.91
2018-02-09T23:39:20.920Z,2.77
2018-02-09T23:41:49.976Z,2.46
2018-02-09T23:44:18.251Z,2.82
2018-02-09T23:46:46.529Z,2.91
2018-02-09T23:49:14.809Z,2.70
2018-02-09T23:51:43.071Z,2.55
2018-02-09T23:54:11.347Z,2.91
2018-02-09T23:56:39.616Z,2.62
2018-02-09T23:59:07.897Z,2.96
